Terminal Aerodrome Forecast
Issued by NWS

Home | Current Version | Previous Version | Text Only | Print | Product List | Glossary On
Versions: 1 2 3 4 5 6 7 8 9 10 11 12 13 14 15 16 17
000
FTUS42 KMLB 240527
TAFLEE
TAF
KLEE 240527Z 2406/2506 23004KT P6SM SCT035 SCT070 BKN250
     FM241000 26004KT P6SM SCT012 BKN060
      TEMPO 2410/2412 5SM BR BKN012
     FM241200 32005KT P6SM BKN015
     FM241400 31005KT P6SM SCT015 BKN070
     FM242100 30006KT P6SM SCT250=

USA.gov is the U.S. government's official web portal to all federal, state and local government web resources and services.